»·PEaware :: WAT169 KSLC-KLAS

WAT169 :: KSLC-KLAS

FLIGHT INFORMATION

Flight Status: Arrived
Operator:
Walker Air Transport
More flights by this operator :: More flights under this callsign
Pilot: Marty P. (27464)
Aircraft: BOEING 737-800
(B738)
More flights by this aircraft type
Origin: KSLC Salt Lake City Intl
United States
Destination: KLAS McCarran Intl
United States
More flights between these airports :: More routes between these airports
Route: +ZIONZ1 EHK KSINO SITEE4
File this flight plan on PilotEdge
Remarks:
Altitude:
(Current/Filed)
38,000ft
Speed:
(Current/Filed)
480kts
Departed: 13-Oct-20 06:38 PM
Arrived: 13-Oct-20 07:32 PM
Distance/Time
Traveled:
319nm/0:54
Distance/Time
To Go:
Arrived

Flight Plot

Page will automatically refresh every two minutes.

Flight plan parsing failed; only flown route is shown


Map Options




Map Legend


Flown Route
Filed Route
Departure Airport
Arrival Airport
Navaid (VOR, NDB)
Fix

Horizontal Profiles

Position Reports

Time Latitude Longitude Heading Altitude Ground
Speed
13-Oct-20 18:14 40.785565 -111.978041 227 4228ft 0kts
13-Oct-20 18:15 40.785565 -111.978041 227 4228ft 0kts
13-Oct-20 18:16 40.785565 -111.978041 227 4228ft 0kts
13-Oct-20 18:17 40.785565 -111.978041 227 4228ft 0kts
13-Oct-20 18:18 40.785565 -111.978041 227 4228ft 0kts
13-Oct-20 18:19 40.785565 -111.978041 227 4228ft 0kts
13-Oct-20 18:20 40.785565 -111.978041 227 4228ft 0kts
13-Oct-20 18:21 40.785565 -111.978041 227 4228ft 0kts
13-Oct-20 18:22 40.785565 -111.978041 227 4228ft 0kts
13-Oct-20 18:23 40.785565 -111.978041 227 4228ft 0kts
13-Oct-20 18:24 40.785565 -111.978041 227 4228ft 0kts
13-Oct-20 18:25 40.785565 -111.978041 227 4228ft 0kts
13-Oct-20 18:26 40.785565 -111.978041 227 4228ft 0kts
13-Oct-20 18:27 40.785565 -111.978041 227 4228ft 0kts
13-Oct-20 18:28 40.785876 -111.977730 183 4228ft 2kts
13-Oct-20 18:29 40.786218 -111.978156 85 4227ft 0kts
13-Oct-20 18:30 40.786220 -111.978124 85 4227ft 0kts
13-Oct-20 18:31 40.786220 -111.978124 85 4227ft 0kts
13-Oct-20 18:32 40.787334 -111.976782 355 4226ft 14kts
13-Oct-20 18:33 40.793517 -111.977498 355 4225ft 24kts
13-Oct-20 18:34 40.799362 -111.978177 354 4228ft 18kts
13-Oct-20 18:35 40.805519 -111.978901 355 4229ft 23kts
13-Oct-20 18:36 40.807381 -111.978409 68 4229ft 7kts
13-Oct-20 18:37 40.797164 -111.975729 175 4227ft 132kts
13-Oct-20 18:38 40.747152 -111.967515 171 5763ft 223kts
13-Oct-20 18:39 40.679621 -111.950828 171 9039ft 261kts
13-Oct-20 18:40 40.606219 -111.929653 171 10036ft 272kts
13-Oct-20 18:41 40.524074 -111.921151 187 11576ft 321kts
13-Oct-20 18:42 40.441381 -111.926614 189 15779ft 297kts
13-Oct-20 18:43 40.357379 -111.932525 189 18495ft 311kts
13-Oct-20 18:44 40.268602 -111.938798 190 20345ft 345kts
13-Oct-20 18:45 40.164278 -111.955046 192 20850ft 411kts
13-Oct-20 18:46 40.044969 -111.973152 191 22108ft 445kts
13-Oct-20 18:47 39.924864 -111.990565 192 24853ft 435kts
13-Oct-20 18:48 39.802531 -112.008481 192 26435ft 449kts
13-Oct-20 18:49 39.678170 -112.026542 192 28334ft 450kts
13-Oct-20 18:51 39.551170 -112.045051 191 28977ft 479kts
13-Oct-20 18:52 39.416033 -112.064416 191 30078ft 492kts
13-Oct-20 18:53 39.280824 -112.083469 190 31640ft 490kts
13-Oct-20 18:54 39.147511 -112.111536 205 33099ft 478kts
13-Oct-20 18:55 39.028877 -112.185061 212 34371ft 474kts
13-Oct-20 18:56 38.913456 -112.266236 213 35590ft 472kts
13-Oct-20 18:57 38.799129 -112.348495 213 36659ft 472kts
13-Oct-20 18:58 38.684661 -112.431146 213 37514ft 473kts
13-Oct-20 18:59 38.570253 -112.513585 213 38196ft 476kts
13-Oct-20 19:00 38.452981 -112.597839 213 38191ft 492kts
13-Oct-20 19:01 38.332383 -112.684141 212 38191ft 501kts
13-Oct-20 19:02 38.210470 -112.771062 212 38194ft 506kts
13-Oct-20 19:03 38.087124 -112.858652 212 38191ft 509kts
13-Oct-20 19:04 37.963743 -112.945946 211 38232ft 510kts
13-Oct-20 19:05 37.839828 -113.033249 211 38255ft 510kts
13-Oct-20 19:06 37.719729 -113.127116 216 38256ft 508kts
13-Oct-20 19:06 37.621940 -113.209798 216 38256ft 507kts
13-Oct-20 19:08 37.485880 -113.325243 217 38244ft 507kts
13-Oct-20 19:08 37.389673 -113.406679 217 37621ft 491kts
13-Oct-20 19:10 37.259406 -113.516653 216 34197ft 480kts
13-Oct-20 19:10 37.166902 -113.594485 216 31699ft 482kts
13-Oct-20 19:11 37.055548 -113.687876 215 28700ft 487kts
13-Oct-20 19:12 36.942109 -113.782671 215 25678ft 488kts
13-Oct-20 19:13 36.834674 -113.872024 215 24121ft 431kts
13-Oct-20 19:14 36.734693 -113.954948 215 24126ft 436kts
13-Oct-20 19:15 36.633492 -114.038659 215 22648ft 439kts
13-Oct-20 19:16 36.553450 -114.137112 236 19626ft 386kts
13-Oct-20 19:17 36.495477 -114.242724 239 16666ft 356kts
13-Oct-20 19:18 36.444377 -114.341379 239 14268ft 325kts
13-Oct-20 19:19 36.397852 -114.431905 239 12263ft 299kts
13-Oct-20 19:20 36.355797 -114.513415 239 11985ft 277kts
13-Oct-20 19:21 36.314396 -114.593784 239 11973ft 276kts
13-Oct-20 19:22 36.272938 -114.674147 239 11363ft 275kts
13-Oct-20 19:23 36.233438 -114.750750 238 10111ft 249kts
13-Oct-20 19:24 36.197689 -114.819678 238 8659ft 232kts
13-Oct-20 19:25 36.162660 -114.887218 237 6666ft 244kts
13-Oct-20 19:26 36.138457 -114.955354 270 6040ft 196kts
13-Oct-20 19:27 36.139869 -115.023155 271 5043ft 194kts
13-Oct-20 19:28 36.141541 -115.085258 271 3429ft 163kts
13-Oct-20 19:29 36.127329 -115.134730 213 2899ft 156kts
13-Oct-20 19:30 36.090067 -115.158398 205 2125ft 140kts
13-Oct-20 19:31 36.081618 -115.161691 93 2146ft 2kts
13-Oct-20 19:32 36.081573 -115.154760 107 2124ft 25kts
13-Oct-20 19:33 36.081253 -115.148162 61 2100ft 14kts
13-Oct-20 19:34 36.081380 -115.147841 66 2099ft 0kts
13-Oct-20 19:35 36.081380 -115.147841 66 2099ft 0kts
13-Oct-20 19:36 36.081380 -115.147841 66 2099ft 0kts
13-Oct-20 19:37 36.081380 -115.147841 66 2099ft 0kts

Navigation Log

Ident Type
Flight plan parsing failed, navigation log unavailable